createdAt,value
2022-11-14T00:01:30.304Z,7.85
2022-11-14T00:03:56.687Z,9.20
2022-11-14T00:06:22.965Z,6.97
2022-11-14T00:08:49.286Z,6.68
2022-11-14T00:11:15.615Z,5.63
2022-11-14T00:13:42.053Z,8.43
2022-11-14T00:16:08.415Z,8.32
2022-11-14T00:18:34.862Z,7.32
2022-11-14T00:21:01.228Z,8.77
2022-11-14T00:23:27.541Z,8.57
2022-11-14T00:25:53.914Z,9.02
2022-11-14T00:28:20.233Z,9.32
2022-11-14T00:30:47.768Z,8.60
2022-11-14T00:33:19.832Z,9.55
2022-11-14T00:35:56.394Z,10.90
2022-11-14T00:38:23.091Z,11.88
2022-11-14T00:40:49.601Z,9.93
2022-11-14T00:43:16.019Z,7.45
2022-11-14T00:45:45.404Z,5.75
2022-11-14T00:48:11.766Z,6.68
2022-11-14T00:50:38.157Z,12.00
2022-11-14T00:53:04.979Z,6.97
2022-11-14T00:55:31.296Z,6.18
2022-11-14T00:57:57.633Z,7.32
2022-11-14T01:00:24.000Z,10.68
2022-11-14T01:02:50.372Z,12.25
2022-11-14T01:05:16.835Z,8.30
2022-11-14T01:07:43.156Z,6.57
2022-11-14T01:10:09.798Z,7.00
2022-11-14T01:12:36.147Z,8.98
2022-11-14T01:15:02.516Z,7.57
2022-11-14T01:17:28.844Z,6.68
2022-11-14T01:19:55.160Z,6.40
2022-11-14T01:22:21.459Z,7.45
2022-11-14T01:24:47.806Z,8.13
2022-11-14T01:27:14.112Z,7.10
2022-11-14T01:29:40.435Z,8.60
2022-11-14T01:32:07.029Z,11.13
2022-11-14T01:34:33.435Z,7.05
2022-11-14T01:36:59.734Z,5.85
2022-11-14T01:39:26.407Z,8.82
2022-11-14T01:41:52.987Z,7.75
2022-11-14T01:44:38.434Z,8.88
2022-11-14T01:47:05.481Z,5.53
2022-11-14T01:49:35.903Z,6.30
2022-11-14T01:52:03.525Z,8.05
2022-11-14T01:54:32.741Z,7.47
2022-11-14T01:57:00.332Z,8.90
2022-11-14T01:59:36.112Z,7.43
2022-11-14T02:19:06.576Z,8.18
2022-11-14T02:21:32.970Z,8.32
2022-11-14T02:23:59.277Z,6.85
2022-11-14T02:26:25.583Z,8.48
2022-11-14T02:28:51.953Z,7.05
2022-11-14T02:31:18.404Z,7.68
2022-11-14T02:33:44.831Z,9.35
2022-11-14T02:36:11.188Z,7.97
2022-11-14T02:38:37.524Z,11.07
2022-11-14T02:41:03.912Z,10.23
2022-11-14T02:43:30.284Z,6.20
2022-11-14T02:45:59.192Z,5.30
2022-11-14T02:48:29.607Z,8.40
2022-11-14T02:50:56.182Z,8.25
2022-11-14T02:53:22.527Z,12.25
2022-11-14T02:55:50.330Z,7.97
2022-11-14T02:58:16.649Z,10.63
2022-11-14T03:01:05.800Z,7.18
2022-11-14T03:03:29.330Z,9.80
2022-11-14T03:05:58.961Z,7.85
2022-11-14T03:08:25.267Z,7.07
2022-11-14T03:10:51.574Z,9.88
2022-11-14T03:13:17.892Z,8.02
2022-11-14T03:15:44.252Z,10.93
2022-11-14T03:18:10.590Z,10.32
2022-11-14T03:20:36.996Z,8.23
2022-11-14T03:23:03.302Z,9.27
2022-11-14T03:25:29.672Z,9.52
2022-11-14T03:27:55.989Z,10.07
2022-11-14T03:30:22.303Z,10.05
2022-11-14T03:32:48.656Z,12.35
2022-11-14T03:35:14.978Z,12.02
2022-11-14T03:37:41.268Z,12.13
2022-11-14T03:40:08.060Z,13.35
2022-11-14T03:42:34.826Z,12.02
2022-11-14T03:45:01.350Z,11.20
2022-11-14T03:47:27.699Z,12.75
2022-11-14T03:49:54.007Z,14.00
2022-11-14T03:52:20.321Z,9.80
2022-11-14T03:54:46.682Z,12.05
2022-11-14T03:57:13.029Z,9.77
2022-11-14T03:59:39.345Z,11.80
2022-11-14T04:02:05.651Z,12.38
2022-11-14T04:04:31.955Z,11.52
2022-11-14T04:06:58.433Z,9.95
2022-11-14T04:09:24.864Z,8.90
2022-11-14T04:11:51.204Z,11.50
2022-11-14T04:14:17.562Z,11.57
2022-11-14T04:16:43.957Z,10.02
2022-11-14T04:19:10.259Z,12.80
2022-11-14T04:21:36.617Z,9.27
2022-11-14T04:24:05.941Z,11.52
2022-11-14T04:26:36.260Z,10.90
2022-11-14T04:29:02.716Z,11.80
2022-11-14T04:31:29.067Z,11.55
2022-11-14T04:33:55.366Z,12.70
2022-11-14T04:36:21.665Z,11.05
2022-11-14T04:38:47.965Z,8.20
2022-11-14T04:41:14.268Z,11.95
2022-11-14T04:43:40.602Z,13.13
2022-11-14T04:46:06.973Z,12.57
2022-11-14T04:48:33.357Z,11.27
2022-11-14T04:50:59.726Z,15.25
2022-11-14T04:53:26.135Z,13.35
2022-11-14T04:55:53.135Z,12.95
2022-11-14T04:58:20.163Z,15.63
2022-11-14T05:00:46.548Z,13.18
2022-11-14T05:03:12.866Z,17.08
2022-11-14T05:05:41.958Z,20.67
2022-11-14T05:08:08.761Z,16.80
2022-11-14T05:10:35.160Z,18.92
2022-11-14T05:13:01.692Z,20.58
2022-11-14T05:15:28.055Z,19.30
2022-11-14T05:17:54.461Z,17.02
2022-11-14T05:20:20.840Z,16.75
2022-11-14T05:22:47.234Z,18.85
2022-11-14T05:25:13.567Z,17.10
2022-11-14T05:27:39.884Z,17.85
2022-11-14T05:30:06.488Z,21.95
2022-11-14T05:32:32.871Z,17.23
2022-11-14T05:34:59.197Z,16.02
2022-11-14T05:37:25.516Z,18.42
2022-11-14T05:39:51.878Z,16.38
2022-11-14T05:42:18.194Z,17.40
2022-11-14T05:44:44.520Z,17.25
2022-11-14T05:47:10.845Z,16.45
2022-11-14T05:49:37.214Z,19.40
2022-11-14T05:52:03.572Z,16.63
2022-11-14T05:54:29.952Z,10.60
2022-11-14T05:56:56.260Z,14.25
2022-11-14T05:59:22.568Z,15.40
2022-11-14T06:01:48.980Z,14.35
2022-11-14T06:04:15.423Z,17.08
2022-11-14T06:06:41.764Z,15.05
2022-11-14T06:09:08.179Z,9.85
2022-11-14T06:11:34.672Z,17.08
2022-11-14T06:14:00.971Z,15.13
2022-11-14T06:16:27.324Z,13.30
2022-11-14T06:18:54.008Z,17.88
2022-11-14T06:21:21.487Z,14.80
2022-11-14T06:23:48.100Z,17.00
2022-11-14T06:26:20.657Z,16.63
2022-11-14T06:28:47.327Z,16.73
2022-11-14T06:31:13.655Z,17.17
2022-11-14T06:33:40.035Z,16.88
2022-11-14T06:36:07.127Z,13.68
2022-11-14T06:38:34.462Z,10.13
2022-11-14T06:41:03.866Z,18.85
2022-11-14T06:43:31.951Z,12.93
2022-11-14T06:45:58.244Z,18.55
2022-11-14T06:48:24.571Z,13.27
2022-11-14T06:50:52.007Z,11.80
2022-11-14T06:53:18.362Z,17.20
2022-11-14T06:55:52.395Z,12.30
2022-11-14T06:58:18.686Z,19.52
2022-11-14T07:00:45.000Z,18.00
2022-11-14T07:03:11.521Z,15.65
2022-11-14T07:05:37.950Z,11.75
2022-11-14T07:08:04.376Z,19.83
2022-11-14T07:10:30.725Z,16.52
2022-11-14T07:12:57.030Z,19.00
2022-11-14T07:15:23.317Z,17.58
2022-11-14T07:17:49.670Z,18.90
2022-11-14T07:20:18.414Z,17.55
2022-11-14T07:22:47.888Z,17.65
2022-11-14T07:25:14.302Z,12.27
2022-11-14T07:27:40.669Z,19.30
2022-11-14T07:30:07.234Z,15.18
2022-11-14T07:32:33.711Z,12.43
2022-11-14T07:35:02.395Z,19.83
2022-11-14T07:37:29.148Z,13.65
2022-11-14T07:39:55.489Z,10.75
2022-11-14T07:42:21.821Z,16.13
2022-11-14T07:44:48.150Z,17.05
2022-11-14T07:47:14.484Z,13.32
2022-11-14T07:49:40.811Z,10.55
2022-11-14T07:52:07.279Z,19.90
2022-11-14T07:54:33.684Z,18.95
2022-11-14T07:56:59.985Z,12.82
2022-11-14T07:59:26.278Z,13.18
2022-11-14T08:01:52.587Z,10.93
2022-11-14T08:04:18.903Z,15.07
2022-11-14T08:06:45.318Z,18.60
2022-11-14T08:09:11.638Z,12.18
2022-11-14T08:11:50.297Z,14.63
2022-11-14T08:14:16.642Z,13.35
2022-11-14T08:16:42.954Z,15.27
2022-11-14T08:19:09.265Z,18.15
2022-11-14T08:21:36.107Z,13.25
2022-11-14T08:24:02.560Z,15.45
2022-11-14T08:26:33.027Z,14.98
2022-11-14T08:29:00.901Z,8.32
2022-11-14T08:31:27.285Z,18.02
2022-11-14T08:33:53.674Z,13.98
2022-11-14T08:36:20.009Z,8.63
2022-11-14T08:38:46.371Z,12.88
2022-11-14T08:41:12.701Z,13.45
2022-11-14T08:43:39.022Z,12.45
2022-11-14T08:46:05.479Z,11.02
2022-11-14T08:48:32.779Z,14.63
2022-11-14T08:51:02.820Z,13.15
2022-11-14T08:53:29.206Z,10.82
2022-11-14T08:55:55.694Z,12.40
2022-11-14T08:58:22.088Z,12.35
2022-11-14T09:00:48.428Z,14.18
2022-11-14T09:03:16.083Z,13.98
2022-11-14T09:05:42.608Z,13.82
2022-11-14T09:08:08.911Z,7.53
2022-11-14T09:10:35.208Z,12.48
2022-11-14T09:13:02.173Z,11.35
2022-11-14T09:15:29.123Z,8.18
2022-11-14T09:17:55.677Z,11.65
2022-11-14T09:20:31.075Z,15.82
2022-11-14T09:23:01.975Z,11.57
2022-11-14T09:25:29.259Z,13.18
2022-11-14T09:27:55.815Z,11.35
2022-11-14T09:30:23.112Z,16.08
2022-11-14T09:32:49.944Z,11.93
2022-11-14T09:35:16.358Z,12.35
2022-11-14T09:37:42.815Z,12.98
2022-11-14T09:40:11.738Z,12.93
2022-11-14T09:42:47.283Z,9.63
2022-11-14T09:45:15.554Z,10.98
2022-11-14T09:47:46.318Z,11.48
2022-11-14T09:50:32.895Z,10.18
2022-11-14T09:53:01.920Z,12.93
2022-11-14T09:55:36.536Z,12.93
2022-11-14T09:58:03.745Z,11.98
2022-11-14T10:00:39.144Z,10.77
2022-11-14T10:03:16.752Z,9.55
2022-11-14T10:05:43.526Z,8.85
2022-11-14T10:08:15.919Z,8.57
2022-11-14T10:10:57.680Z,15.20
2022-11-14T10:13:24.003Z,10.57
2022-11-14T10:16:02.195Z,10.50
2022-11-14T10:18:46.751Z,14.07
2022-11-14T10:21:21.948Z,6.53
2022-11-14T10:23:51.020Z,8.85
2022-11-14T10:26:24.545Z,13.60
2022-11-14T10:29:09.662Z,7.22
2022-11-14T10:31:41.975Z,9.75
2022-11-14T10:34:13.842Z,9.07
2022-11-14T10:36:53.796Z,8.93
2022-11-14T10:39:24.126Z,8.70
2022-11-14T10:41:58.798Z,15.88
2022-11-14T10:44:32.642Z,11.52
2022-11-14T10:47:02.476Z,10.80
2022-11-14T10:49:31.903Z,13.55
2022-11-14T10:52:01.408Z,16.67
2022-11-14T10:54:27.736Z,8.93
2022-11-14T10:56:54.926Z,10.00
2022-11-14T10:59:21.420Z,11.82
2022-11-14T11:01:50.831Z,14.00
2022-11-14T11:04:23.035Z,8.98
2022-11-14T11:06:50.232Z,9.57
2022-11-14T11:09:42.113Z,11.73
2022-11-14T11:12:16.245Z,14.90
2022-11-14T11:14:43.151Z,9.48
2022-11-14T11:17:12.503Z,13.90
2022-11-14T11:19:39.264Z,16.98
2022-11-14T11:22:10.824Z,11.90
2022-11-14T11:24:37.625Z,14.95
2022-11-14T11:27:15.189Z,11.75
2022-11-14T11:29:41.611Z,14.43
2022-11-14T11:32:08.243Z,15.15
2022-11-14T11:34:34.806Z,16.40
2022-11-14T11:37:01.119Z,14.77
2022-11-14T11:39:31.984Z,10.02
2022-11-14T11:42:09.849Z,15.48
2022-11-14T11:44:40.625Z,13.40
2022-11-14T11:47:12.267Z,9.65
2022-11-14T11:49:53.471Z,8.70
2022-11-14T11:52:39.032Z,11.75
2022-11-14T11:55:05.529Z,19.58
2022-11-14T11:57:35.202Z,16.25
2022-11-14T12:00:04.327Z,16.75
2022-11-14T12:02:30.823Z,16.77
2022-11-14T12:04:57.783Z,22.15
2022-11-14T12:07:42.880Z,22.08
2022-11-14T12:10:22.106Z,22.55
2022-11-14T12:12:54.406Z,18.20
2022-11-14T12:15:20.761Z,24.67
2022-11-14T12:18:05.611Z,31.42
2022-11-14T12:20:47.726Z,29.13
2022-11-14T12:23:14.062Z,31.67
2022-11-14T12:26:03.484Z,28.70
2022-11-14T12:28:32.517Z,24.02
2022-11-14T12:31:01.378Z,27.30
2022-11-14T12:33:31.100Z,22.90
2022-11-14T12:35:59.556Z,25.70
2022-11-14T12:38:26.378Z,24.10
2022-11-14T12:40:54.310Z,21.73
2022-11-14T12:43:36.383Z,20.90
2022-11-14T12:46:08.670Z,19.27
2022-11-14T12:48:36.408Z,19.27
2022-11-14T12:51:03.997Z,22.52
2022-11-14T12:53:36.123Z,19.83
2022-11-14T12:56:05.550Z,18.92
2022-11-14T12:58:31.896Z,23.73
2022-11-14T13:01:06.109Z,25.05
2022-11-14T13:03:48.183Z,18.20
2022-11-14T13:06:17.608Z,21.27
2022-11-14T13:09:04.179Z,25.35
2022-11-14T13:11:53.195Z,18.52
2022-11-14T13:14:39.055Z,20.80
2022-11-14T13:17:30.268Z,20.52
2022-11-14T13:20:15.949Z,22.20
2022-11-14T13:22:43.856Z,19.23
2022-11-14T13:25:15.653Z,18.55
2022-11-14T13:30:57.161Z,15.43
2022-11-14T13:33:42.291Z,16.50
2022-11-14T13:36:16.731Z,14.40
2022-11-14T13:39:15.546Z,14.68
2022-11-14T13:41:53.135Z,13.75
2022-11-14T13:44:22.536Z,15.07
2022-11-14T13:46:57.697Z,15.82
2022-11-14T13:49:30.011Z,12.35
2022-11-14T13:51:56.567Z,18.08
2022-11-14T13:54:23.127Z,11.00
2022-11-14T13:56:52.464Z,13.68
2022-11-14T13:59:18.860Z,13.93
2022-11-14T14:01:51.924Z,15.15
2022-11-14T14:04:18.267Z,18.02
2022-11-14T14:06:55.881Z,15.55
2022-11-14T14:09:25.248Z,14.40
2022-11-14T14:11:57.447Z,14.35
2022-11-14T14:14:23.839Z,11.90
2022-11-14T14:16:58.593Z,18.05
2022-11-14T14:19:26.290Z,15.02
2022-11-14T14:21:52.756Z,14.40
2022-11-14T14:24:34.303Z,18.15
2022-11-14T14:27:05.938Z,15.90
2022-11-14T14:29:50.771Z,11.65
2022-11-14T14:32:18.298Z,16.23
2022-11-14T14:34:44.757Z,14.13
2022-11-14T14:37:21.624Z,13.52
2022-11-14T14:40:05.044Z,16.63
2022-11-14T14:42:37.148Z,14.50
2022-11-14T14:45:04.058Z,16.42
2022-11-14T14:47:30.357Z,12.25
2022-11-14T14:49:56.803Z,14.73
2022-11-14T14:52:29.851Z,11.65
2022-11-14T14:54:56.608Z,14.70
2022-11-14T14:57:23.581Z,12.80
2022-11-14T15:00:00.261Z,12.20
2022-11-14T15:02:26.906Z,11.88
2022-11-14T15:04:53.323Z,22.30
2022-11-14T15:07:21.432Z,15.73
2022-11-14T15:09:56.309Z,13.85
2022-11-14T15:12:24.010Z,10.70
2022-11-14T15:14:50.945Z,13.77
2022-11-14T15:17:17.516Z,19.42
2022-11-14T15:19:45.363Z,13.23
2022-11-14T15:22:14.447Z,13.68
2022-11-14T15:24:40.928Z,11.20
2022-11-14T15:27:20.166Z,15.25
2022-11-14T15:29:47.595Z,11.95
2022-11-14T15:32:23.971Z,12.82
2022-11-14T15:35:10.554Z,15.18
2022-11-14T15:37:36.985Z,14.32
2022-11-14T15:40:19.983Z,15.45
2022-11-14T15:42:46.295Z,12.88
2022-11-14T15:45:26.026Z,9.65
2022-11-14T15:47:59.493Z,13.77
2022-11-14T15:50:30.152Z,11.25
2022-11-14T15:53:03.984Z,12.88
2022-11-14T15:55:30.384Z,14.30
2022-11-14T15:58:26.107Z,13.43
2022-11-14T16:00:53.280Z,11.88
2022-11-14T16:03:22.071Z,12.93
2022-11-14T16:05:48.556Z,12.68
2022-11-14T16:08:14.890Z,16.15
2022-11-14T16:10:41.250Z,22.52
2022-11-14T16:13:07.708Z,16.77
2022-11-14T16:15:34.045Z,20.23
2022-11-14T16:18:00.453Z,22.15
2022-11-14T16:20:28.637Z,27.02
2022-11-14T16:22:56.588Z,25.10
2022-11-14T16:25:27.195Z,18.80
2022-11-14T16:27:53.716Z,24.77
2022-11-14T16:30:20.968Z,21.75
2022-11-14T16:32:48.088Z,28.88
2022-11-14T16:35:18.884Z,23.33
2022-11-14T16:37:48.303Z,26.90
2022-11-14T16:40:26.863Z,27.15
2022-11-14T16:42:57.286Z,29.92
2022-11-14T16:45:24.001Z,27.00
2022-11-14T16:47:50.407Z,32.20
2022-11-14T16:50:17.276Z,25.15
2022-11-14T16:52:43.589Z,30.55
2022-11-14T16:55:10.312Z,28.08
2022-11-14T16:57:37.232Z,22.27
2022-11-14T17:00:04.506Z,23.17
2022-11-14T17:02:30.847Z,27.60
2022-11-14T17:04:57.191Z,25.58
2022-11-14T17:07:23.631Z,26.40
2022-11-14T17:09:50.045Z,25.67
2022-11-14T17:12:16.395Z,28.95
2022-11-14T17:14:43.054Z,26.50
2022-11-14T17:17:09.446Z,29.15
2022-11-14T17:19:35.769Z,24.58
2022-11-14T17:22:02.146Z,21.30
2022-11-14T17:24:31.351Z,17.88
2022-11-14T17:26:57.977Z,25.55
2022-11-14T17:29:24.349Z,28.30
2022-11-14T17:31:50.853Z,24.88
2022-11-14T17:34:17.247Z,29.55
2022-11-14T17:36:43.617Z,20.35
2022-11-14T17:39:09.989Z,21.55
2022-11-14T17:41:36.411Z,20.00
2022-11-14T17:44:03.594Z,27.58
2022-11-14T17:46:30.353Z,25.02
2022-11-14T17:48:57.463Z,25.52
2022-11-14T17:51:25.554Z,26.90
2022-11-14T17:53:51.963Z,22.02
2022-11-14T17:56:19.856Z,22.63
2022-11-14T17:58:46.337Z,25.55
2022-11-14T18:01:14.321Z,23.60
2022-11-14T18:03:40.810Z,21.05
2022-11-14T18:06:14.713Z,17.60
2022-11-14T18:08:41.096Z,23.60
2022-11-14T18:11:09.287Z,20.58
2022-11-14T18:13:35.809Z,26.58
2022-11-14T18:16:06.248Z,22.02
2022-11-14T18:18:33.561Z,22.48
2022-11-14T18:21:10.148Z,22.95
2022-11-14T18:23:38.586Z,15.35
2022-11-14T18:26:08.650Z,22.40
2022-11-14T18:28:34.987Z,21.13
2022-11-14T18:31:03.404Z,22.08
2022-11-14T18:33:29.798Z,26.88
2022-11-14T18:35:57.798Z,20.65
2022-11-14T18:38:24.224Z,22.33
2022-11-14T18:40:54.409Z,19.55
2022-11-14T18:43:23.464Z,19.42
2022-11-14T18:45:49.804Z,17.83
2022-11-14T18:48:16.312Z,19.17
2022-11-14T18:50:42.708Z,15.75
2022-11-14T18:53:09.062Z,20.50
2022-11-14T18:55:39.496Z,21.55
2022-11-14T18:58:06.003Z,15.15
2022-11-14T19:00:32.412Z,20.05
2022-11-14T19:03:03.433Z,19.95
2022-11-14T19:05:35.922Z,21.42
2022-11-14T19:08:03.259Z,19.95
2022-11-14T19:10:29.584Z,23.83
2022-11-14T19:12:55.996Z,21.30
2022-11-14T19:15:22.334Z,23.23
2022-11-14T19:17:48.762Z,23.67
2022-11-14T19:20:15.172Z,23.10
2022-11-14T19:22:41.604Z,23.60
2022-11-14T19:25:09.104Z,22.15
2022-11-14T19:27:35.493Z,25.15
2022-11-14T19:30:01.960Z,23.35
2022-11-14T19:32:28.297Z,23.00
2022-11-14T19:34:54.628Z,21.52
2022-11-14T19:37:20.922Z,23.08
2022-11-14T19:39:47.384Z,24.75
2022-11-14T19:42:13.705Z,25.75
2022-11-14T19:44:40.016Z,22.50
2022-11-14T19:47:06.356Z,18.77
2022-11-14T19:49:32.766Z,23.38
2022-11-14T19:51:59.224Z,23.92
2022-11-14T19:54:25.610Z,24.52
2022-11-14T19:56:51.967Z,25.05
2022-11-14T19:59:23.049Z,22.08
2022-11-14T20:01:55.217Z,23.13
2022-11-14T20:04:21.780Z,27.55
2022-11-14T20:06:49.240Z,32.80
2022-11-14T20:09:16.506Z,29.48
2022-11-14T20:11:42.823Z,28.85
2022-11-14T20:14:10.682Z,34.53
2022-11-14T20:16:37.437Z,31.98
2022-11-14T20:19:04.174Z,34.13
2022-11-14T20:21:31.492Z,31.48
2022-11-14T20:23:57.998Z,35.55
2022-11-14T20:26:24.640Z,16.70
2022-11-14T20:28:52.819Z,38.65
2022-11-14T20:31:27.280Z,34.20
2022-11-14T20:33:53.950Z,34.92
2022-11-14T20:36:23.898Z,34.03
2022-11-14T20:38:50.830Z,32.88
2022-11-14T20:41:17.541Z,32.17
2022-11-14T20:43:44.160Z,30.92
2022-11-14T20:46:15.182Z,34.17
2022-11-14T20:48:41.973Z,31.17
2022-11-14T20:51:10.492Z,30.13
2022-11-14T20:53:37.754Z,32.25
2022-11-14T20:56:04.370Z,27.08
2022-11-14T20:58:31.191Z,31.05
2022-11-14T21:00:57.540Z,33.92
2022-11-14T21:03:24.190Z,29.95
2022-11-14T21:05:50.551Z,28.92
2022-11-14T21:08:17.211Z,30.85
2022-11-14T21:10:47.729Z,30.20
2022-11-14T21:13:36.635Z,30.73
2022-11-14T21:16:04.355Z,32.25
2022-11-14T21:18:32.180Z,26.65
2022-11-14T21:20:59.908Z,33.67
2022-11-14T21:23:26.223Z,27.85
2022-11-14T21:25:52.767Z,28.25
2022-11-14T21:28:19.209Z,31.45
2022-11-14T21:30:45.610Z,32.22
2022-11-14T21:33:12.098Z,23.20
2022-11-14T21:35:38.428Z,29.58
2022-11-14T21:38:04.765Z,27.30
2022-11-14T21:40:31.056Z,36.13
2022-11-14T21:42:57.375Z,33.63
2022-11-14T21:45:23.694Z,35.95
2022-11-14T21:47:50.298Z,28.45
2022-11-14T21:50:16.705Z,33.30
2022-11-14T21:52:43.053Z,34.10
2022-11-14T21:55:10.535Z,30.92
2022-11-14T21:57:36.931Z,32.22
2022-11-14T22:00:04.063Z,29.80
2022-11-14T22:03:06.018Z,34.60
2022-11-14T22:05:32.347Z,33.25
2022-11-14T22:07:58.751Z,31.38
2022-11-14T22:10:27.290Z,29.30
2022-11-14T22:12:53.612Z,32.33
2022-11-14T22:15:21.367Z,27.73
2022-11-14T22:17:47.720Z,29.45
2022-11-14T22:20:14.127Z,28.67
2022-11-14T22:22:40.468Z,26.20
2022-11-14T22:25:06.910Z,19.50
2022-11-14T22:27:33.223Z,33.92
2022-11-14T22:29:59.523Z,25.25
2022-11-14T22:32:25.924Z,32.83
2022-11-14T22:34:52.276Z,29.45
2022-11-14T22:37:18.592Z,29.77
2022-11-14T22:39:44.974Z,30.30
2022-11-14T22:42:11.422Z,28.08
2022-11-14T22:44:37.739Z,27.30
2022-11-14T22:47:04.071Z,36.08
2022-11-14T22:49:30.411Z,29.20
2022-11-14T22:51:56.760Z,28.67
2022-11-14T22:54:23.076Z,29.63
2022-11-14T22:56:49.453Z,27.42
2022-11-14T22:59:15.849Z,38.13
2022-11-14T23:01:42.624Z,36.75
2022-11-14T23:04:08.974Z,32.30
2022-11-14T23:06:35.476Z,32.88
2022-11-14T23:09:02.480Z,36.50
2022-11-14T23:11:29.802Z,27.88
2022-11-14T23:13:57.019Z,36.20
2022-11-14T23:16:24.715Z,37.38
2022-11-14T23:18:52.999Z,35.03
2022-11-14T23:21:20.796Z,32.20
2022-11-14T23:23:51.900Z,35.03
2022-11-14T23:26:18.244Z,30.65
2022-11-14T23:28:45.699Z,32.00
2022-11-14T23:31:12.130Z,30.67
2022-11-14T23:33:38.490Z,31.58
2022-11-14T23:36:04.964Z,37.60
2022-11-14T23:38:31.316Z,35.80
2022-11-14T23:40:58.520Z,38.80
2022-11-14T23:43:25.252Z,34.03
2022-11-14T23:45:51.602Z,41.15
2022-11-14T23:48:18.769Z,30.92
2022-11-14T23:50:45.394Z,43.90
2022-11-14T23:53:11.960Z,33.17
2022-11-14T23:55:38.602Z,45.13
2022-11-14T23:58:05.047Z,39.40
